Time;durP1;ratioP1;P1;durP2;ratioP2;P2;SDS_P1;SDS_P2;PMS_P1;PMS_P2;Temp;Humidity;BMP_temperature;BMP_pressure;BME280_temperature;BME280_humidity;BME280_pressure;Samples;Min_cycle;Max_cycle;Signal;HPM_P1;HPM_P2
2021/03/11 00:02:04;;;;;;;28.10;19.25;;;;;;;11.40;71.77;100309.56;5093216;28;20048;-65
2021/03/11 00:04:31;;;;;;;29.08;21.75;;;;;;;11.41;71.78;100303.69;5075402;28;20052;-66
2021/03/11 00:06:58;;;;;;;27.65;19.55;;;;;;;11.64;70.22;100296.84;5076324;28;20044;-64
2021/03/11 00:09:31;;;;;;;26.83;19.15;;;;;;;11.86;69.68;100298.53;5078098;28;20517;-65
2021/03/11 00:11:58;;;;;;;27.88;19.40;;;;;;;11.91;68.29;100296.38;5074585;28;20505;-65
2021/03/11 00:14:25;;;;;;;26.85;19.65;;;;;;;11.66;70.24;100289.06;5095247;28;20417;-67
2021/03/11 00:16:58;;;;;;;27.92;20.55;;;;;;;11.77;69.70;100276.50;5095101;28;20047;-68
2021/03/11 00:19:31;;;;;;;32.67;19.88;;;;;;;11.73;69.14;100274.75;5077983;28;20036;-64
2021/03/11 00:21:58;;;;;;;29.85;20.73;;;;;;;11.41;70.85;100284.41;5094087;28;20048;-69
2021/03/11 00:24:26;;;;;;;29.20;21.08;;;;;;;11.25;70.97;100275.84;5094822;28;20051;-66
2021/03/11 00:26:56;;;;;;;29.77;20.73;;;;;;;11.46;72.61;100275.13;5060357;28;20048;-62
2021/03/11 00:29:24;;;;;;;28.20;20.70;;;;;;;11.31;71.05;100282.00;5091386;28;20063;-66
2021/03/11 00:31:55;;;;;;;25.42;19.48;;;;;;;11.26;70.91;100273.91;5075075;28;20040;-67
2021/03/11 00:34:26;;;;;;;29.00;20.60;;;;;;;11.45;71.90;100265.25;5060549;28;20471;-67
2021/03/11 00:36:53;;;;;;;31.23;22.05;;;;;;;11.43;72.63;100273.03;5075943;28;20051;-69
2021/03/11 00:39:21;;;;;;;28.10;20.98;;;;;;;11.14;72.05;100263.53;5077228;28;20051;-66
2021/03/11 00:41:48;;;;;;;28.45;19.73;;;;;;;11.19;73.05;100257.06;5092063;28;20040;-66
2021/03/11 00:44:18;;;;;;;30.00;19.95;;;;;;;11.50;71.96;100243.81;5093849;28;20059;-63
2021/03/11 00:46:45;;;;;;;23.98;17.95;;;;;;;11.78;72.86;100231.22;5093308;28;20505;-65
2021/03/11 00:49:15;;;;;;;26.65;17.98;;;;;;;11.64;71.19;100221.50;5076990;28;20040;-65
2021/03/11 00:51:45;;;;;;;23.73;18.20;;;;;;;11.23;73.57;100225.75;5076838;28;20090;-65
2021/03/11 00:54:12;;;;;;;23.42;16.98;;;;;;;11.48;71.69;100226.78;5059763;28;20055;-66
2021/03/11 00:56:39;;;;;;;22.38;16.58;;;;;;;11.36;72.42;100226.69;5075932;28;20051;-66
2021/03/11 00:59:12;;;;;;;24.52;17.63;;;;;;;11.81;72.70;100202.13;5061733;28;20449;-68
2021/03/11 01:06:09;;;;;;;22.30;15.88;;;;;;;11.59;71.51;100197.69;5090741;28;20067;-66
2021/03/11 01:08:40;;;;;;;19.63;14.85;;;;;;;12.02;71.54;100191.94;5075741;28;20051;-67
2021/03/11 01:11:07;;;;;;;20.40;15.85;;;;;;;12.03;71.46;100196.31;5093744;28;20047;-63
2021/03/11 01:13:35;;;;;;;22.05;14.55;;;;;;;12.26;70.79;100197.59;5093641;28;20246;-64
2021/03/11 01:16:02;;;;;;;18.88;14.68;;;;;;;12.42;70.95;100182.03;5075690;28;20063;-64
2021/03/11 01:18:29;;;;;;;18.50;14.50;;;;;;;12.30;71.80;100195.78;5068551;28;20048;-65
2021/03/11 01:20:56;;;;;;;19.85;14.45;;;;;;;12.41;70.86;100185.94;5075622;28;20405;-65
2021/03/11 01:23:23;;;;;;;21.75;15.65;;;;;;;11.92;69.87;100195.91;5093294;28;20071;-66
2021/03/11 01:25:50;;;;;;;19.48;13.85;;;;;;;12.37;70.68;100174.75;5093374;28;20052;-67
2021/03/11 01:28:17;;;;;;;21.13;13.63;;;;;;;12.17;70.52;100174.75;5058422;28;20055;-65
2021/03/11 01:30:44;;;;;;;21.55;13.75;;;;;;;12.31;70.44;100184.38;5073667;28;20067;-69
2021/03/11 01:33:26;;;;;;;19.00;13.80;;;;;;;12.11;71.21;100174.19;5093530;28;20047;-66
2021/03/11 01:35:54;;;;;;;21.40;14.43;;;;;;;11.95;70.21;100175.91;5093445;28;20078;-65
2021/03/11 01:38:24;;;;;;;18.15;13.18;;;;;;;11.81;72.52;100178.13;5093184;28;20040;-66
2021/03/11 01:40:54;;;;;;;19.75;13.40;;;;;;;11.77;72.14;100174.41;5092495;28;20067;-67
2021/03/11 01:43:24;;;;;;;19.38;13.75;;;;;;;11.83;72.60;100169.50;5075958;28;20407;-65
2021/03/11 01:45:53;;;;;;;21.65;14.38;;;;;;;11.95;71.62;100172.34;5092484;28;20070;-64
2021/03/11 01:48:20;;;;;;;20.65;13.38;;;;;;;12.09;71.52;100154.38;5074649;28;20131;-67
2021/03/11 01:51:07;;;;;;;22.27;12.95;;;;;;;12.21;71.20;100170.19;5093353;28;20048;-66
2021/03/11 01:53:34;;;;;;;21.33;13.50;;;;;;;11.94;71.87;100156.94;5091943;28;20402;-67
2021/03/11 01:56:01;;;;;;;19.08;12.20;;;;;;;12.38;71.63;100131.38;5093142;28;20052;-67
2021/03/11 01:58:28;;;;;;;16.73;12.18;;;;;;;12.25;72.98;100149.03;5074148;28;20055;-64
2021/03/11 02:00:58;;;;;;;17.05;12.60;;;;;;;12.02;71.47;100156.88;5075507;28;20051;-64
2021/03/11 02:03:25;;;;;;;19.30;12.65;;;;;;;12.09;71.75;100137.81;5092822;28;20067;-69
2021/03/11 02:05:52;;;;;;;18.52;12.38;;;;;;;12.04;71.83;100135.25;5074721;28;20529;-68
2021/03/11 02:08:20;;;;;;;17.42;12.40;;;;;;;11.71;73.01;100137.13;5092836;28;20040;-65
2021/03/11 02:10:47;;;;;;;17.63;12.07;;;;;;;11.92;74.02;100131.63;5092367;28;20052;-68
2021/03/11 02:13:26;;;;;;;18.42;11.88;;;;;;;12.00;73.95;100122.44;5090822;28;20051;-64
2021/03/11 02:16:22;;;;;;;17.10;11.73;;;;;;;11.65;75.06;100116.38;5075898;28;20048;-65
2021/03/11 02:19:01;;;;;;;18.65;11.88;;;;;;;11.92;73.90;100115.06;5072289;28;20399;-66
2021/03/11 02:21:28;;;;;;;21.13;11.57;;;;;;;11.94;74.12;100119.06;5072661;28;20044;-68
2021/03/11 02:24:22;;;;;;;17.52;10.27;;;;;;;12.32;74.15;100108.69;5092567;28;20048;-67
2021/03/11 02:27:08;;;;;;;14.65;10.50;;;;;;;11.98;75.66;100106.22;5089885;28;20067;-65
2021/03/11 02:29:37;;;;;;;17.20;11.05;;;;;;;12.37;73.32;100093.84;5055912;28;20056;-65
2021/03/11 02:32:24;;;;;;;15.63;10.13;;;;;;;12.27;73.19;100094.28;5093366;28;20044;-62
2021/03/11 02:34:57;;;;;;;16.93;10.80;;;;;;;12.73;72.31;100071.84;5074741;28;20048;-62
2021/03/11 02:37:32;;;;;;;12.85;9.18;;;;;;;12.39;72.43;100072.25;5074221;28;20298;-64
2021/03/11 02:40:08;;;;;;;15.07;9.45;;;;;;;12.07;74.70;100048.19;5091785;28;20044;-64
2021/03/11 02:42:47;;;;;;;13.45;10.05;;;;;;;11.92;75.10;100051.59;5091182;28;20075;-65
2021/03/11 02:45:35;;;;;;;13.80;9.50;;;;;;;12.01;75.08;100046.78;5075474;28;20066;-66
2021/03/11 02:48:05;;;;;;;14.60;9.00;;;;;;;12.46;74.70;100051.19;5091923;28;20047;-67
2021/03/11 02:50:33;;;;;;;11.55;8.45;;;;;;;12.55;73.76;100050.28;5087040;28;20048;-66
2021/03/11 02:53:06;;;;;;;10.23;6.95;;;;;;;12.70;73.85;100047.66;5074828;28;20036;-65
2021/03/11 02:55:42;;;;;;;11.38;7.30;;;;;;;12.59;73.84;100051.22;5074980;28;20048;-64
2021/03/11 02:58:12;;;;;;;11.07;6.85;;;;;;;12.73;72.73;100041.44;5091843;28;20048;-67
2021/03/11 03:00:44;;;;;;;9.90;6.95;;;;;;;12.30;74.73;100049.41;5074880;28;20052;-66
2021/03/11 03:03:12;;;;;;;10.43;6.68;;;;;;;12.58;75.03;100063.41;5092122;28;20056;-64
2021/03/11 03:05:42;;;;;;;8.73;6.18;;;;;;;12.98;72.79;100056.09;5078687;28;20390;-64
2021/03/11 03:08:15;;;;;;;11.00;6.07;;;;;;;12.94;73.42;100047.69;5076732;28;20063;-66
2021/03/11 03:10:46;;;;;;;8.48;5.63;;;;;;;12.78;73.67;100035.69;5061158;28;20048;-66
2021/03/11 03:13:15;;;;;;;7.10;4.43;;;;;;;12.99;73.16;100044.69;5096499;28;20044;-67
2021/03/11 03:15:43;;;;;;;6.75;4.53;;;;;;;12.93;73.14;100050.78;5096302;28;20055;-64
2021/03/11 03:18:15;;;;;;;7.05;4.25;;;;;;;12.82;73.81;100041.34;5078416;28;20063;-67
2021/03/11 03:20:49;;;;;;;6.93;3.90;;;;;;;13.19;73.04;100038.25;5079145;28;20056;-67
2021/03/11 03:23:18;;;;;;;7.57;4.03;;;;;;;13.45;71.70;100030.38;5077937;28;20048;-67
2021/03/11 03:25:48;;;;;;;8.68;3.92;;;;;;;13.22;72.00;100033.97;5078090;28;20051;-67
2021/03/11 03:28:17;;;;;;;7.50;4.03;;;;;;;13.12;72.28;100023.41;5061215;28;20048;-62
2021/03/11 03:30:45;;;;;;;7.40;3.80;;;;;;;13.10;73.61;100025.69;5095153;28;20044;-66
2021/03/11 03:33:13;;;;;;;7.13;3.90;;;;;;;12.92;74.29;100016.03;5095882;28;20055;-66
2021/03/11 03:35:40;;;;;;;7.50;4.07;;;;;;;12.97;74.34;100024.88;5095452;28;20048;-66
2021/03/11 03:38:16;;;;;;;7.70;4.15;;;;;;;12.85;74.57;100010.25;5095605;28;20044;-65
2021/03/11 03:40:43;;;;;;;6.15;3.40;;;;;;;13.17;73.20;100007.38;5093125;28;20059;-69
2021/03/11 03:43:18;;;;;;;4.90;3.13;;;;;;;13.22;74.06;100004.38;5078029;28;20051;-68
2021/03/11 03:46:07;;;;;;;7.53;3.45;;;;;;;13.52;72.43;100002.13;5093677;28;20059;-66
2021/03/11 03:48:40;;;;;;;5.97;3.28;;;;;;;13.10;73.95;100001.63;5093445;28;20067;-67
2021/03/11 03:51:08;;;;;;;5.82;3.53;;;;;;;12.95;74.89;100007.03;5075895;28;20131;-65
2021/03/11 03:53:42;;;;;;;5.47;2.80;;;;;;;13.54;72.72;100010.88;5095429;28;20052;-64
2021/03/11 03:56:17;;;;;;;4.72;2.63;;;;;;;13.50;73.01;100021.84;5094923;28;20059;-67
2021/03/11 03:58:45;;;;;;;4.60;2.80;;;;;;;13.65;72.18;100025.81;5076954;28;20044;-66
2021/03/11 04:01:12;;;;;;;4.40;2.35;;;;;;;13.68;72.21;100021.56;5060279;28;20059;-67
2021/03/11 04:03:59;;;;;;;4.95;2.50;;;;;;;13.83;71.96;100001.44;5087234;28;20051;-67
2021/03/11 04:06:26;;;;;;;4.32;2.35;;;;;;;13.71;71.72;100002.28;5076503;28;20051;-66
2021/03/11 04:08:55;;;;;;;5.00;2.50;;;;;;;13.66;72.19;100013.59;5076558;28;20043;-66
2021/03/11 04:11:24;;;;;;;5.65;2.80;;;;;;;13.75;71.99;100021.75;5076834;28;20052;-67
2021/03/11 04:13:56;;;;;;;5.15;2.40;;;;;;;13.30;73.12;100011.72;5091711;28;20384;-63
2021/03/11 04:16:24;;;;;;;4.18;2.22;;;;;;;13.28;73.64;100008.53;5059737;28;20056;-69
2021/03/11 04:18:52;;;;;;;8.50;2.40;;;;;;;13.49;73.75;100008.38;5076618;28;20078;-69
2021/03/11 04:21:19;;;;;;;5.03;2.15;;;;;;;13.76;71.81;99995.69;5076728;28;20044;-65
2021/03/11 04:23:50;;;;;;;3.65;2.22;;;;;;;13.73;73.12;100010.22;5094873;28;20048;-66
2021/03/11 04:26:27;;;;;;;4.22;2.10;;;;;;;13.56;73.20;100014.09;5077992;28;20066;-68
2021/03/11 04:28:54;;;;;;;4.68;1.90;;;;;;;13.92;72.26;100016.75;5092809;28;20108;-67
2021/03/11 04:31:25;;;;;;;5.20;2.55;;;;;;;13.76;72.57;100015.06;5076920;28;20115;-68
2021/03/11 04:33:57;;;;;;;3.10;1.98;;;;;;;13.88;72.57;100026.13;5094217;28;20402;-65
2021/03/11 04:36:25;;;;;;;3.60;1.73;;;;;;;14.01;71.81;100014.63;5093598;28;20056;-64
2021/03/11 04:38:52;;;;;;;3.72;1.90;;;;;;;13.83;72.91;100018.03;5093983;28;20421;-70
2021/03/11 04:41:22;;;;;;;;;;;;;;;13.35;74.55;100008.72;5060090;28;20047;-64
2021/03/11 04:43:52;;;;;;;3.63;1.88;;;;;;;13.35;75.00;99986.59;5094534;28;19924;-67
2021/03/11 04:46:22;;;;;;;2.75;1.55;;;;;;;13.82;73.04;99994.28;5076741;28;20087;-66
2021/03/11 04:49:10;;;;;;;3.63;1.88;;;;;;;13.60;73.81;99989.31;5011856;28;20060;-65
2021/03/11 04:51:58;;;;;;;2.40;1.52;;;;;;;13.70;73.09;99978.56;4998955;28;20397;-64
2021/03/11 04:54:26;;;;;;;4.60;1.97;;;;;;;13.78;72.63;99960.16;5009029;28;20050;-66
2021/03/11 04:56:56;;;;;;;5.03;2.38;;;;;;;13.98;72.82;99970.22;5011183;28;20812;-63
2021/03/11 04:59:25;;;;;;;2.55;1.52;;;;;;;13.65;74.27;99964.16;5015554;28;20421;-66
2021/03/11 05:01:55;;;;;;;1.95;1.33;;;;;;;13.77;73.57;99972.41;5094177;28;20044;-63
2021/03/11 05:04:26;;;;;;;3.25;1.45;;;;;;;13.90;72.93;99957.34;5076438;28;20048;-66
2021/03/11 05:06:54;;;;;;;2.95;1.42;;;;;;;13.76;73.66;99956.94;5076316;28;20048;-60
2021/03/11 05:09:20;;;;;;;3.17;1.70;;;;;;;13.66;74.92;99968.50;5074905;28;20048;-63
2021/03/11 05:11:48;;;;;;;3.25;1.50;;;;;;;13.84;74.93;99970.66;5086346;28;20055;-63
2021/03/11 05:14:16;;;;;;;2.42;1.20;;;;;;;13.96;73.77;99959.50;5092844;28;20055;-61
2021/03/11 05:16:51;;;;;;;2.95;1.50;;;;;;;13.37;76.28;99961.38;5077572;28;20414;-64
2021/03/11 05:19:19;;;;;;;3.50;1.40;;;;;;;13.48;76.46;99935.63;5093032;28;20066;-65
2021/03/11 05:21:55;;;;;;;3.38;1.40;;;;;;;13.47;76.88;99945.09;5093732;28;20051;-64
2021/03/11 05:24:23;;;;;;;2.35;1.40;;;;;;;13.98;74.59;99937.00;5075320;28;20048;-67
2021/03/11 05:26:53;;;;;;;3.08;1.30;;;;;;;13.51;76.01;99947.97;5059825;28;20070;-68
2021/03/11 05:29:19;;;;;;;3.38;1.42;;;;;;;13.60;75.70;99942.28;5093675;28;20395;-64
2021/03/11 05:31:46;;;;;;;4.82;1.65;;;;;;;13.75;75.11;99949.81;5081596;28;20052;-64
2021/03/11 05:34:13;;;;;;;3.30;1.42;;;;;;;13.91;74.80;99942.34;5055513;28;20048;-65
2021/03/11 05:36:52;;;;;;;4.32;1.60;;;;;;;13.92;73.98;99952.25;5056767;28;20056;-65
2021/03/11 05:39:19;;;;;;;4.28;1.60;;;;;;;14.08;73.35;99939.25;5072955;28;20044;-65
2021/03/11 05:41:47;;;;;;;5.47;1.52;;;;;;;14.24;71.87;99934.53;5037964;28;20056;-65
2021/03/11 05:44:15;;;;;;;3.53;1.52;;;;;;;13.80;74.49;99936.53;5054554;28;20060;-64
2021/03/11 05:46:42;;;;;;;3.58;1.50;;;;;;;13.84;74.27;99942.16;5054344;28;20060;-65
2021/03/11 05:49:11;;;;;;;9.75;1.60;;;;;;;13.77;74.26;99941.97;5044816;28;20063;-67
2021/03/11 05:51:39;;;;;;;7.07;1.90;;;;;;;13.92;73.57;99944.75;5055046;28;20055;-65
2021/03/11 05:54:06;;;;;;;5.00;1.60;;;;;;;14.08;73.03;99944.78;5038530;28;20071;-68
2021/03/11 05:56:33;;;;;;;6.50;3.20;;;;;;;13.92;73.33;99938.41;5070178;28;20044;-67
2021/03/11 05:59:01;;;;;;;5.18;1.55;;;;;;;14.28;72.68;99940.97;5055052;28;20048;-64
2021/03/11 06:01:31;;;;;;;4.72;1.40;;;;;;;14.13;72.91;99930.66;5054979;28;20056;-64
2021/03/11 06:04:01;;;;;;;;;;;;;;;14.06;73.44;99924.94;5072367;28;20048;-64
2021/03/11 06:06:32;;;;;;;11.57;1.38;;;;;;;14.53;71.34;99920.25;5037872;28;19943;-66
2021/03/11 06:09:07;;;;;;;7.10;1.50;;;;;;;14.06;73.29;99928.53;5053119;28;20055;-68
2021/03/11 06:11:35;;;;;;;7.65;1.60;;;;;;;14.16;73.48;99932.72;5072026;28;20048;-71
2021/03/11 06:14:32;;;;;;;6.40;2.70;;;;;;;14.45;71.96;99926.78;5056001;28;20051;-69
2021/03/11 06:17:06;;;;;;;7.72;3.63;;;;;;;14.20;73.19;99919.78;5053556;28;20055;-67
2021/03/11 06:19:35;;;;;;;4.78;1.48;;;;;;;13.80;75.08;99930.16;5072300;28;20051;-65
2021/03/11 06:22:03;;;;;;;4.55;1.13;;;;;;;14.20;73.45;99905.94;5071668;28;20052;-67
2021/03/11 06:24:30;;;;;;;4.88;1.40;;;;;;;14.18;73.22;99922.09;5071729;28;20045;-64
2021/03/11 06:26:57;;;;;;;5.35;1.30;;;;;;;13.94;74.37;99913.94;5072111;28;20387;-67
2021/03/11 06:29:40;;;;;;;2.90;1.10;;;;;;;13.96;74.63;99909.69;5071541;28;20518;-68
2021/03/11 06:32:08;;;;;;;6.68;1.50;;;;;;;13.92;75.13;99906.00;5086100;28;20055;-68
2021/03/11 06:34:40;;;;;;;4.63;1.10;;;;;;;14.25;73.59;99908.44;5089865;28;20044;-67
2021/03/11 06:37:14;;;;;;;3.88;1.20;;;;;;;14.47;72.80;99913.38;5092421;28;20066;-65
2021/03/11 06:39:42;;;;;;;3.35;1.08;;;;;;;14.40;72.37;99910.44;5073382;28;20055;-67
2021/03/11 06:42:10;;;;;;;3.53;0.88;;;;;;;14.48;72.63;99901.94;5072336;28;20055;-64
2021/03/11 06:44:45;;;;;;;4.22;0.95;;;;;;;14.81;71.97;99907.06;5092170;28;20059;-68
2021/03/11 06:47:19;;;;;;;2.77;0.73;;;;;;;15.00;70.91;99901.56;5091330;28;20063;-67
2021/03/11 06:49:58;;;;;;;4.90;0.88;;;;;;;14.99;71.10;99913.84;5074424;28;20044;-66
2021/03/11 06:52:26;;;;;;;4.55;1.13;;;;;;;15.08;69.68;99928.28;5089947;28;20055;-68
2021/03/11 06:54:58;;;;;;;1.83;0.73;;;;;;;14.44;72.42;99912.13;5090305;28;20055;-68
2021/03/11 06:57:26;;;;;;;1.40;0.70;;;;;;;14.58;71.28;99925.53;5062865;28;20044;-66
2021/03/11 07:00:15;;;;;;;3.10;0.80;;;;;;;14.72;70.39;99925.06;5089103;28;20067;-66
2021/03/11 07:02:57;;;;;;;4.05;0.68;;;;;;;14.10;73.13;99936.94;5092070;28;20055;-65
2021/03/11 07:05:28;;;;;;;3.78;1.10;;;;;;;14.16;73.28;99930.75;5074615;28;20055;-63
2021/03/11 07:08:08;;;;;;;2.08;0.57;;;;;;;14.57;71.74;99938.56;5092101;28;20052;-65
2021/03/11 07:10:41;;;;;;;2.25;0.70;;;;;;;13.73;74.90;99961.22;5091779;28;20395;-63
2021/03/11 07:13:12;;;;;;;2.55;0.50;;;;;;;13.36;77.98;99970.81;5090992;28;20063;-64
2021/03/11 07:15:40;;;;;;;2.70;1.00;;;;;;;13.25;80.04;99987.06;5074146;28;20056;-70
2021/03/11 07:18:12;;;;;;;3.78;0.88;;;;;;;13.72;78.76;99978.97;5091541;28;20567;-65
2021/03/11 07:20:40;;;;;;;4.35;1.35;;;;;;;14.16;76.32;99943.81;5057481;28;20059;-69
2021/03/11 07:23:10;;;;;;;2.87;0.90;;;;;;;14.31;76.12;99943.06;5073725;28;20070;-68
2021/03/11 07:25:42;;;;;;;2.90;0.80;;;;;;;14.43;72.70;99938.25;5090964;28;20048;-63
2021/03/11 07:28:10;;;;;;;3.13;1.00;;;;;;;13.78;71.19;99926.94;5088852;28;20048;-65
2021/03/11 07:30:51;;;;;;;3.63;0.50;;;;;;;12.89;73.13;99945.63;5056781;28;20129;-68
2021/03/11 07:33:32;;;;;;;8.60;1.15;;;;;;;13.04;72.96;99946.94;5090721;28;20044;-64
2021/03/11 07:36:05;;;;;;;8.18;0.90;;;;;;;13.74;69.46;99956.50;5088486;28;20055;-69
2021/03/11 07:38:33;;;;;;;5.32;0.90;;;;;;;13.48;70.71;99956.94;5086741;28;20048;-73
2021/03/11 07:41:03;;;;;;;5.65;0.90;;;;;;;13.69;70.73;99974.16;5090379;28;20083;-70
2021/03/11 07:43:31;;;;;;;6.25;0.82;;;;;;;13.40;70.42;99986.38;5075047;28;20056;-68
2021/03/11 07:46:04;;;;;;;2.78;0.60;;;;;;;12.95;73.98;99977.44;5091380;28;20478;-71
2021/03/11 07:48:31;;;;;;;3.60;0.60;;;;;;;13.00;73.86;99984.69;5075285;28;20043;-69
2021/03/11 07:50:59;;;;;;;9.18;0.75;;;;;;;12.71;75.74;99982.16;5089427;28;20052;-67
2021/03/11 07:53:28;;;;;;;3.58;0.82;;;;;;;13.54;73.90;99989.56;5077599;28;20063;-72
2021/03/11 07:55:59;;;;;;;2.25;0.65;;;;;;;12.95;74.10;99988.50;5093103;28;20059;-69
2021/03/11 07:58:43;;;;;;;5.95;0.68;;;;;;;13.24;73.96;100001.25;5094516;28;20059;-68
2021/03/11 08:01:15;;;;;;;4.07;0.70;;;;;;;13.10;74.40;100009.94;5094654;28;20066;-71
2021/03/11 08:03:48;;;;;;;6.35;0.80;;;;;;;13.61;70.20;100005.56;5077852;28;20475;-73
2021/03/11 08:06:26;;;;;;;2.67;0.90;;;;;;;13.29;71.15;100001.81;5073682;28;20048;-76
2021/03/11 08:08:54;;;;;;;6.47;1.00;;;;;;;14.21;68.43;100007.28;5094980;28;20048;-70
2021/03/11 08:11:47;;;;;;;6.07;1.20;;;;;;;13.74;69.29;100003.56;5084364;28;20397;-72
2021/03/11 08:14:15;;;;;;;3.30;0.80;;;;;;;13.13;67.34;100005.66;5093353;28;20422;-69
2021/03/11 08:16:45;;;;;;;4.22;0.80;;;;;;;13.71;65.40;100009.78;5075330;28;20462;-69
2021/03/11 08:19:35;;;;;;;6.07;1.20;;;;;;;14.39;67.59;100019.66;5077032;28;20051;-71
2021/03/11 08:22:03;;;;;;;4.72;0.98;;;;;;;13.71;64.37;100021.66;5092324;28;20048;-77
2021/03/11 08:24:46;;;;;;;4.78;1.00;;;;;;;14.63;64.67;100025.03;5095991;28;20402;-71
2021/03/11 08:27:42;;;;;;;8.30;1.10;;;;;;;13.62;65.70;100026.53;5071347;28;20052;-73
2021/03/11 08:30:40;;;;;;;3.40;0.90;;;;;;;13.73;67.34;100030.44;5072436;28;20497;-69
2021/03/11 08:33:12;;;;;;;7.65;1.40;;;;;;;13.85;67.10;100037.88;5094697;28;20055;-73
2021/03/11 08:35:40;;;;;;;3.58;1.00;;;;;;;14.52;66.78;100035.06;5076445;28;20051;-70
2021/03/11 08:38:19;;;;;;;5.65;1.50;;;;;;;14.25;66.56;100035.84;5077197;28;20598;-73
2021/03/11 08:41:07;;;;;;;3.30;0.85;;;;;;;13.82;68.28;100033.84;5075709;28;20063;-65
2021/03/11 08:43:37;;;;;;;4.28;1.15;;;;;;;13.73;68.76;100029.59;5095274;28;20051;-72
2021/03/11 08:46:15;;;;;;;5.75;1.38;;;;;;;13.70;69.41;100033.91;5075985;28;20471;-68
2021/03/11 08:48:58;;;;;;;4.50;1.35;;;;;;;13.36;70.26;100026.94;5076988;28;20044;-64
2021/03/11 08:55:56;;;;;;;7.78;2.00;;;;;;;13.17;70.57;100018.44;5093063;28;20056;-74
2021/03/11 08:58:25;;;;;;;9.65;1.85;;;;;;;13.41;69.06;100021.16;5072280;28;20048;-67
2021/03/11 09:01:02;;;;;;;11.43;1.88;;;;;;;13.26;67.82;100034.91;5075270;28;20048;-63
2021/03/11 09:03:36;;;;;;;6.68;1.48;;;;;;;13.16;67.34;100021.56;5075818;28;20558;-65
2021/03/11 09:06:08;;;;;;;10.13;1.88;;;;;;;13.64;67.04;100017.88;5093258;28;20059;-67
2021/03/11 09:13:03;;;;;;;22.73;2.33;;;;;;;13.90;64.18;100030.13;5092146;28;20051;-68
2021/03/11 09:15:30;;;;;;;8.30;2.10;;;;;;;13.91;65.60;100031.75;5094604;28;20052;-67
2021/03/11 09:18:04;;;;;;;8.32;2.30;;;;;;;14.27;66.49;100028.03;5094423;28;20054;-72
2021/03/11 09:20:31;;;;;;;10.25;2.22;;;;;;;14.78;62.89;100015.09;5095421;28;20052;-74
2021/03/11 09:27:30;;;;;;;10.38;1.95;;;;;;;14.51;63.81;100016.78;5093025;28;20063;-69
2021/03/11 09:30:12;;;;;;;13.13;3.20;;;;;;;14.62;60.85;100017.88;5077293;28;20065;-68
2021/03/11 09:32:40;;;;;;;15.25;2.63;;;;;;;14.36;61.52;100021.19;5073894;28;20506;-67
2021/03/11 09:35:10;;;;;;;14.18;2.60;;;;;;;14.39;61.41;100014.09;5053432;28;20060;-74
2021/03/11 09:42:09;;;;;;;13.90;2.63;;;;;;;14.22;59.69;100022.72;5072739;28;20044;-63
2021/03/11 09:44:46;;;;;;;14.55;3.15;;;;;;;13.94;60.39;100031.03;5072900;28;20052;-65
2021/03/11 09:47:27;;;;;;;15.10;3.13;;;;;;;14.36;58.91;100023.13;5073207;28;20055;-63
2021/03/11 09:50:15;;;;;;;20.58;3.83;;;;;;;14.57;57.66;100037.56;5073258;28;20055;-67
2021/03/11 09:57:11;;;;;;;17.25;3.28;;;;;;;15.12;59.75;100048.44;5072069;28;20051;-68
2021/03/11 09:59:44;;;;;;;16.17;3.40;;;;;;;14.80;57.56;100046.88;5055419;28;20041;-65
2021/03/11 10:02:12;;;;;;;18.20;3.22;;;;;;;14.42;58.50;100044.69;5071694;28;20471;-69
2021/03/11 10:04:40;;;;;;;29.20;4.22;;;;;;;14.12;59.82;100050.94;5071590;28;20052;-66
2021/03/11 10:11:48;;;;;;;22.00;3.47;;;;;;;14.46;58.48;100061.41;5072021;28;20044;-65
2021/03/11 10:14:26;;;;;;;20.90;4.47;;;;;;;14.15;58.32;100055.75;5067948;28;20049;-64
2021/03/11 10:16:55;;;;;;;21.25;3.78;;;;;;;15.41;56.97;100047.19;5072242;28;20547;-62
2021/03/11 10:19:35;;;;;;;16.63;2.92;;;;;;;14.97;56.89;100037.38;5072309;28;20056;-64
2021/03/11 10:22:04;;;;;;;18.38;3.08;;;;;;;15.24;53.88;100056.66;5072074;28;20045;-62
2021/03/11 10:29:08;;;;;;;20.75;3.38;;;;;;;14.20;53.86;100049.97;5071362;28;20512;-68
2021/03/11 10:31:36;;;;;;;18.67;3.45;;;;;;;14.54;58.79;100041.00;5081561;28;20048;-64
2021/03/11 10:34:08;;;;;;;23.40;3.85;;;;;;;14.26;54.65;100046.59;5091748;28;20044;-63
2021/03/11 10:36:39;;;;;;;14.10;3.15;;;;;;;15.14;54.15;100037.81;5074958;28;20063;-65
2021/03/11 10:43:35;;;;;;;21.63;3.58;;;;;;;15.47;53.51;100051.28;5091817;28;20040;-71
2021/03/11 10:46:04;;;;;;;21.70;3.65;;;;;;;15.76;54.46;100028.50;5074787;28;20055;-70
2021/03/11 10:48:48;;;;;;;23.92;4.38;;;;;;;14.65;52.05;100045.69;5091954;28;20044;-67
2021/03/11 10:51:21;;;;;;;25.52;4.20;;;;;;;14.77;54.72;100042.03;5091681;28;20064;-69
2021/03/11 10:58:26;;;;;;;19.40;3.85;;;;;;;14.62;51.37;100037.28;5091218;28;20048;-72
2021/03/11 11:01:13;;;;;;;24.60;3.58;;;;;;;14.79;52.51;100039.69;5092024;28;20051;-69
2021/03/11 11:03:42;;;;;;;16.50;3.70;;;;;;;15.70;49.94;100047.47;5091849;28;20421;-71
2021/03/11 11:06:10;;;;;;;26.23;3.95;;;;;;;15.11;47.45;100048.81;5089709;28;20048;-72
2021/03/11 11:08:40;;;;;;;19.20;3.97;;;;;;;14.66;48.16;100041.75;5091409;28;20060;-72
2021/03/11 11:11:14;;;;;;;16.75;3.50;;;;;;;15.13;51.78;100050.03;5060109;28;20128;-72
2021/03/11 11:13:42;;;;;;;25.88;3.95;;;;;;;14.99;49.27;100055.28;5073760;28;20048;-76
2021/03/11 11:16:10;;;;;;;18.35;3.75;;;;;;;15.20;49.98;100053.00;5073510;28;20059;-70
2021/03/11 11:18:46;;;;;;;20.77;3.75;;;;;;;15.17;48.55;100047.34;5056596;28;20044;-70
2021/03/11 11:21:19;;;;;;;20.75;3.92;;;;;;;15.37;49.82;100038.75;5091716;28;20056;-69
2021/03/11 11:23:50;;;;;;;15.93;3.80;;;;;;;15.65;47.13;100035.84;5091371;28;20060;-71
2021/03/11 11:26:17;;;;;;;21.88;3.72;;;;;;;14.89;48.53;100052.25;5093017;28;20063;-69
2021/03/11 11:28:48;;;;;;;18.50;3.60;;;;;;;15.83;47.09;100045.31;5093947;28;20059;-70
2021/03/11 11:31:15;;;;;;;18.92;3.65;;;;;;;15.25;47.50;100047.19;5094873;28;20055;-70
2021/03/11 11:33:44;;;;;;;22.63;4.22;;;;;;;15.89;45.20;100043.06;5095975;28;20051;-72
2021/03/11 11:36:11;;;;;;;14.68;3.70;;;;;;;15.85;44.21;100037.44;5095679;28;20517;-72
2021/03/11 11:38:41;;;;;;;15.07;3.42;;;;;;;15.03;47.00;100042.28;5094883;28;20055;-66
2021/03/11 11:41:10;;;;;;;15.88;3.47;;;;;;;15.57;49.56;100054.28;5076974;28;20052;-71
2021/03/11 11:43:37;;;;;;;23.90;3.33;;;;;;;15.65;47.29;100036.66;5095533;28;20059;-72
2021/03/11 11:46:05;;;;;;;17.65;3.33;;;;;;;15.96;44.95;100035.69;5088079;28;20052;-73
2021/03/11 11:48:35;;;;;;;17.73;3.75;;;;;;;15.49;45.82;100043.41;5095474;28;20044;-69
2021/03/11 11:51:02;;;;;;;13.43;3.70;;;;;;;15.17;45.20;100037.06;5095002;28;20059;-71
2021/03/11 11:53:30;;;;;;;18.08;4.03;;;;;;;15.21;46.05;100040.75;5095417;28;20055;-72
2021/03/11 12:00:39;;;;;;;16.17;3.20;;;;;;;15.28;44.66;100029.81;5095042;28;20047;-75
2021/03/11 12:03:14;;;;;;;14.02;3.53;;;;;;;15.16;44.64;100020.78;5094617;28;20044;-78
2021/03/11 12:05:41;;;;;;;16.35;3.35;;;;;;;15.17;43.77;100033.47;5090302;28;20052;-74
2021/03/11 12:08:08;;;;;;;18.92;2.90;;;;;;;15.09;43.78;100021.44;5075993;28;20487;-70
2021/03/11 12:10:37;;;;;;;12.43;3.10;;;;;;;14.98;43.66;100025.91;5094570;28;20052;-70
2021/03/11 12:13:10;;;;;;;15.10;3.15;;;;;;;15.04;43.29;100023.69;5095729;28;20048;-73
2021/03/11 12:15:37;;;;;;;13.85;3.83;;;;;;;14.95;44.25;100028.59;5091949;28;20044;-71
2021/03/11 12:18:08;;;;;;;15.63;3.00;;;;;;;15.29;43.29;100008.44;5095579;28;20397;-68
2021/03/11 12:20:36;;;;;;;17.23;3.50;;;;;;;15.27;43.14;100010.75;5094745;28;20055;-70
2021/03/11 12:23:27;;;;;;;18.80;3.15;;;;;;;15.55;43.36;99998.34;5094623;28;20048;-65
2021/03/11 12:26:01;;;;;;;17.27;3.70;;;;;;;15.69;42.40;100020.06;5058570;28;20552;-70
2021/03/11 12:28:28;;;;;;;14.20;3.65;;;;;;;15.46;42.50;100006.06;5059662;28;20066;-69
2021/03/11 12:31:03;;;;;;;15.15;3.58;;;;;;;15.57;42.59;100017.38;5094451;28;20059;-73
2021/03/11 12:33:30;;;;;;;15.32;3.33;;;;;;;15.71;42.90;100010.19;5092803;28;20055;-68